AirNav   Textron
 
 671 users online  

7CO6 Vantage View Airport
Rush, Colorado, USA


FAA INFORMATION EFFECTIVE 07 DECEMBER 2017

Location

FAA Identifier: 7CO6
Lat/Long: 38-45-37.0000N / 104-06-05.0000W
38-45.616667N / 104-06.083333W
38.7602778 / -104.1013889
(estimated)
Elevation: 5780 ft. / 1762 m (estimated)
From city: 5 miles S of RUSH, CO
Time zone: UTC -7 (UTC -6 during Daylight Saving Time)
Zip code: 80864

Airport Operations

Airport use: Private use. Permission required prior to landing
Activation date: 08/2009
Control tower: no
ARTCC: DENVER CENTER
FSS: DENVER FLIGHT SERVICE STATION
Attendance: UNATNDD
Segmented circle: no

Airport Communications

WX ASOS at CO90 (9 nm W): 121.425 (719-683-3346)

Nearby radio navigation aids

VOR radial/distance  VOR name  Freq  Var
HGOr254/22.7HUGO VOR/DME112.1007E
BRKr106/27.2BLACK FOREST VOR/DME112.5008E
FCSr069/31.1BUTTS VOR/DME108.8012E
PUBr021/31.9PUEBLO VORTAC116.7008E

 
NDB name  Hdg/Dist  Freq  Var  ID
IRONHORSE069/30.933512EIHS .. .... ...

Airport Services

Runway Information

Runway 17/35

Dimensions: 2200 x 75 ft. / 671 x 23 m
Surface: turf
RUNWAY 17  RUNWAY 35
Traffic pattern: leftleft

Airport Ownership and Management from official FAA records

Ownership: Privately-owned
Owner: SAM DUPRE
18205 GRAY MARE LANE
PEYTON, CO 80831
Phone 719-362-3349
Manager: SAM DUPRE
18205 GRAY MARE LANE
PEYTON, CO 80831
Phone 719-362-3349

Additional Remarks

OWNER DESIRES ARPT NOT BE CHARTED.

Instrument Procedures

There are no published instrument procedures at 7CO6.

Some nearby airports with instrument procedures:

KCOS - City of Colorado Springs Municipal Airport (28 nm W)
KPUB - Pueblo Memorial Airport (34 nm SW)
KLHX - La Junta Municipal Airport (51 nm SE)
1V6 - Fremont County Airport (51 nm SW)
KAPA - Centennial Airport (60 nm NW)
 
Loc | Ops | Rwys | IFR | FBO | Links
Com | Nav | Svcs | Stats | Notes


 
Aerial photo
No photo
 
Sectional chart

 
Airport distance calculator
Flying to Vantage View Airport? Find the distance to fly.

From to 7CO6

Sunrise and sunset
Times for 11-Dec-2017
 Local
(UTC-7)
 Zulu
(UTC)
Morning civil twilight06:3613:36
Sunrise07:0614:06
Sunset16:3423:34
Evening civil twilight17:0400:04

Current date and time
Zulu (UTC)  11-Dec-2017 12:20:13
Local (UTC-7)  11-Dec-2017 05:20:13
 
METAR
KFLY 
25nm NW 
111155Z AUTO 33009KT 10SM CLR 04/M23 A3037 RMK AO2 T00411233 10052 20005
KCOS 
29nm W 
111154Z 33011KT 10SM CLR 07/M21 A3034 RMK AO2 SLP260 T00671206 10072 21011 58002
KFCS 
32nm W 
111158Z AUTO 33010KT 10SM CLR 01/M19 A3031 RMK AO2 SLP287 T00141186 10040 21006 56003 $
KPUB 
34nm SW 
111153Z AUTO 00000KT 10SM CLR M07/M18 A3031 RMK AO2 SLP283 T10671178 11022 21089 53002
KAFF 
36nm W 
111158Z AUTO 35010KT 10SM CLR M04/M20 A3035 RMK AO2 SLP296 T10451199 11010 21055 58001
KLIC 
37nm NE 
111155Z AUTO 02003KT 10SM CLR M09/M18 A3032 RMK AO2 SLP294 T10891183 10000 21100 58002
KMNH 
37nm NW 
111152Z AUTO 28007KT 10SM CLR M02/M20 A3038 RMK AO2
TAF
KCOS 
29nm W 
111138Z 1112/1212 35009KT P6SM SKC FM111800 08007KT P6SM FEW250 FM112000 15008KT P6SM FEW250 FM120200 02007KT P6SM SKC
KFCS 
32nm W 
110502Z 1105/1211 33009KT 9999 SKC QNH3033INS BECMG 1117/1118 VRB06KT 9999 FEW250 QNH3037INS TX12/1121Z TNM01/1112Z
KPUB 
34nm SW 
111138Z 1112/1212 29004KT P6SM SKC FM111800 10007KT P6SM FEW250 FM120200 VRB04KT P6SM SKC
KAFF 
36nm W 
111202Z 1112/1218 35009KT 9999 SKC 520209 QNH3034INS BECMG 1116/1117 15009KT 9999 SKC 520804 QNH3035INS BECMG 1120/1121 36008KT 9999 SKC 520409 QNH3035INS TEMPO 1121/1123 02012G18KT 510004 BECMG 1202/1203 25007KT 9999 SKC QNH3040INS TX12/1121Z TNM06/1112Z
NOTAMs
Click for the latest NOTAMs
NOTAMs are issued by the DoD/FAA and will open in a separate window not controlled by AirNav.

 

 
 

Would you like to see your business listed on this page?

 If your business provides an interesting product or service to pilots, flight crews, aircraft, or users of the Vantage View Airport, you should consider listing it here.  To start the listing process, click on the button below
 
Add a business
 

Other Pages about Vantage View Airport

Update a link
 
Copyright © AirNav, LLC. All rights reserved. Privacy Policy  Contact